Time;durP1;ratioP1;P1;durP2;ratioP2;P2;SDS_P1;SDS_P2;PMS_P1;PMS_P2;Temp;Humidity;BMP_temperature;BMP_pressure;BME280_temperature;BME280_humidity;BME280_pressure;Samples;Min_cycle;Max_cycle;Signal;HPM_P1;HPM_P2
2023/06/29 00:00:17;;;;;;;34.28;22.48;;;;;;;20.58;100.00;100646.72;5111332;28;20062;-75
2023/06/29 00:02:43;;;;;;;35.42;22.88;;;;;;;20.55;100.00;100644.63;5085002;28;20024;-75
2023/06/29 00:05:09;;;;;;;35.10;23.40;;;;;;;20.56;100.00;100644.28;5093282;28;20036;-75
2023/06/29 00:07:35;;;;;;;35.10;23.35;;;;;;;20.53;100.00;100648.63;5081227;28;20110;-75
2023/06/29 00:10:00;;;;;;;37.03;23.45;;;;;;;20.54;100.00;100641.00;5073203;28;20087;-75
2023/06/29 00:12:27;;;;;;;40.65;24.55;;;;;;;20.47;100.00;100640.75;5098481;28;20080;-75
2023/06/29 00:14:52;;;;;;;34.28;23.27;;;;;;;20.43;100.00;100635.00;5120031;28;20031;-75
2023/06/29 00:17:19;;;;;;;39.47;23.55;;;;;;;20.43;100.00;100631.38;5080235;28;20080;-75
2023/06/29 00:19:45;;;;;;;38.63;22.55;;;;;;;20.46;100.00;100633.47;5091884;28;20031;-75
2023/06/29 00:22:10;;;;;;;37.90;22.75;;;;;;;20.42;100.00;100624.06;5100487;28;20035;-75
2023/06/29 00:24:42;;;;;;;34.22;22.13;;;;;;;20.36;100.00;100620.66;5099467;28;20471;-75
2023/06/29 00:27:14;;;;;;;35.42;22.63;;;;;;;20.37;100.00;100616.69;5099351;28;20082;-74
2023/06/29 00:29:41;;;;;;;42.05;25.30;;;;;;;20.31;100.00;100612.50;5099404;28;20055;-75
2023/06/29 00:32:07;;;;;;;33.70;21.85;;;;;;;20.33;100.00;100612.13;5099188;28;20085;-75
2023/06/29 00:34:33;;;;;;;34.45;22.75;;;;;;;20.32;100.00;100614.13;5081259;28;20444;-75
2023/06/29 00:36:58;;;;;;;40.22;23.23;;;;;;;20.29;100.00;100612.84;5077294;28;20104;-75
2023/06/29 00:39:24;;;;;;;34.35;22.63;;;;;;;20.26;100.00;100610.72;5094674;28;20087;-75
2023/06/29 00:41:53;;;;;;;35.78;23.02;;;;;;;20.25;100.00;100603.47;5082506;28;20484;-75
2023/06/29 00:44:19;;;;;;;34.10;22.20;;;;;;;20.23;100.00;100597.34;5081225;28;20103;-75
2023/06/29 00:46:44;;;;;;;34.20;22.05;;;;;;;20.23;100.00;100593.72;5093929;28;20381;-75
2023/06/29 00:49:10;;;;;;;33.78;21.83;;;;;;;20.23;100.00;100590.91;5080664;28;20449;-75
2023/06/29 00:51:35;;;;;;;34.70;21.92;;;;;;;20.21;100.00;100591.25;5068081;28;20028;-75
2023/06/29 00:54:01;;;;;;;32.15;21.52;;;;;;;20.20;100.00;100589.59;5074823;28;20028;-75
2023/06/29 00:56:26;;;;;;;33.13;21.95;;;;;;;20.19;100.00;100587.13;5087382;28;20031;-75
2023/06/29 00:58:52;;;;;;;38.78;23.45;;;;;;;20.18;100.00;100588.31;5080571;28;20035;-75
2023/06/29 01:01:17;;;;;;;31.17;21.02;;;;;;;20.16;100.00;100585.03;5112235;28;20044;-75
2023/06/29 01:03:43;;;;;;;32.08;21.70;;;;;;;20.14;100.00;100576.09;5073395;28;20073;-75
2023/06/29 01:06:13;;;;;;;34.35;21.23;;;;;;;20.12;100.00;100575.66;5066797;28;20034;-75
2023/06/29 01:08:41;;;;;;;32.25;21.08;;;;;;;20.08;100.00;100573.53;5094207;28;20392;-75
2023/06/29 01:11:06;;;;;;;34.50;21.90;;;;;;;20.06;100.00;100566.63;5080692;28;20076;-75
2023/06/29 01:13:32;;;;;;;30.58;21.15;;;;;;;20.06;100.00;100573.09;5093990;28;20487;-74
2023/06/29 01:15:57;;;;;;;35.65;22.30;;;;;;;20.02;100.00;100566.50;5076531;28;20024;-75
2023/06/29 01:18:24;;;;;;;33.60;22.05;;;;;;;20.00;100.00;100573.66;5063648;28;20028;-75
2023/06/29 01:20:49;;;;;;;35.08;22.05;;;;;;;20.00;100.00;100573.66;5081435;28;20035;-75
2023/06/29 01:23:23;;;;;;;32.47;22.60;;;;;;;19.99;100.00;100572.84;5093453;28;20024;-75
2023/06/29 01:25:50;;;;;;;32.88;21.52;;;;;;;19.95;100.00;100571.13;5098302;28;20035;-75
2023/06/29 01:28:15;;;;;;;33.65;22.45;;;;;;;19.95;100.00;100576.75;5047106;28;20024;-75
2023/06/29 01:30:45;;;;;;;33.10;22.15;;;;;;;19.93;100.00;100573.47;5073312;28;20077;-75
2023/06/29 01:33:11;;;;;;;33.70;21.45;;;;;;;19.92;100.00;100571.81;5100487;28;20428;-75
2023/06/29 01:35:36;;;;;;;32.42;21.10;;;;;;;19.91;100.00;100558.91;5080390;28;20032;-75
2023/06/29 01:38:07;;;;;;;31.73;21.75;;;;;;;19.91;100.00;100559.72;5079650;28;20036;-75
2023/06/29 01:40:32;;;;;;;34.17;21.80;;;;;;;19.86;100.00;100558.00;5047638;28;20119;-75
2023/06/29 01:42:58;;;;;;;34.38;21.75;;;;;;;19.84;100.00;100557.53;5077310;28;20028;-75
2023/06/29 01:45:23;;;;;;;32.28;21.25;;;;;;;19.84;100.00;100557.53;5071129;28;20077;-75
2023/06/29 01:47:49;;;;;;;32.40;20.45;;;;;;;19.83;100.00;100560.69;5111362;28;20051;-75
2023/06/29 01:50:16;;;;;;;31.95;21.20;;;;;;;19.78;100.00;100560.91;5097967;28;20165;-75
2023/06/29 01:52:42;;;;;;;32.55;21.33;;;;;;;19.77;100.00;100559.28;5063239;28;20114;-75
2023/06/29 01:55:09;;;;;;;32.92;19.90;;;;;;;19.77;100.00;100554.47;5075209;28;20035;-75
2023/06/29 01:57:34;;;;;;;30.48;19.85;;;;;;;19.76;100.00;100549.19;5084051;28;20028;-75
2023/06/29 02:00:00;;;;;;;31.23;21.10;;;;;;;19.76;100.00;100543.56;5063105;28;20074;-74
2023/06/29 02:02:25;;;;;;;33.20;20.60;;;;;;;19.74;100.00;100549.53;5097684;28;20028;-75
2023/06/29 02:04:51;;;;;;;32.13;20.40;;;;;;;19.73;100.00;100547.09;5092043;28;20109;-75
2023/06/29 02:07:16;;;;;;;30.08;19.25;;;;;;;19.72;100.00;100539.81;5077689;28;20025;-75
2023/06/29 02:09:43;;;;;;;33.08;20.73;;;;;;;19.69;100.00;100549.78;5079441;28;20104;-75
2023/06/29 02:12:09;;;;;;;32.53;19.63;;;;;;;19.67;100.00;100542.88;5111894;28;20385;-75
2023/06/29 02:14:34;;;;;;;32.70;20.15;;;;;;;19.65;100.00;100540.38;5117920;28;20103;-75
2023/06/29 02:17:00;;;;;;;30.70;21.00;;;;;;;19.61;100.00;100536.63;5101363;28;20032;-75
2023/06/29 02:19:25;;;;;;;33.35;21.27;;;;;;;19.63;100.00;100534.28;5089542;28;20039;-75
2023/06/29 02:21:51;;;;;;;29.23;19.80;;;;;;;19.63;100.00;100537.91;5081878;28;20031;-75
2023/06/29 02:24:16;;;;;;;31.77;20.25;;;;;;;19.60;100.00;100535.00;5107942;28;20043;-75
2023/06/29 02:26:42;;;;;;;31.90;20.10;;;;;;;19.58;100.00;100534.50;5079305;28;20036;-75
2023/06/29 02:29:07;;;;;;;28.65;18.85;;;;;;;19.57;100.00;100533.69;5097508;28;20032;-75
2023/06/29 02:31:33;;;;;;;31.25;20.02;;;;;;;19.54;100.00;100533.59;5079470;28;20024;-75
2023/06/29 02:33:58;;;;;;;30.67;19.63;;;;;;;19.55;100.00;100540.84;5097604;28;20028;-75
2023/06/29 02:36:24;;;;;;;30.65;18.98;;;;;;;19.55;100.00;100536.03;5078880;28;20029;-75
2023/06/29 02:38:49;;;;;;;29.33;19.23;;;;;;;19.53;100.00;100526.31;5069854;28;20487;-75
2023/06/29 02:41:15;;;;;;;29.33;19.35;;;;;;;19.53;100.00;100527.16;5096189;28;20036;-75
2023/06/29 02:43:40;;;;;;;31.45;19.45;;;;;;;19.52;100.00;100527.50;5115303;28;20032;-75
2023/06/29 02:46:05;;;;;;;28.90;19.17;;;;;;;19.52;100.00;100525.50;5104456;28;20082;-75
2023/06/29 02:48:31;;;;;;;26.50;18.65;;;;;;;19.49;100.00;100522.56;5083363;28;20491;-75
2023/06/29 02:50:56;;;;;;;28.98;19.08;;;;;;;19.51;100.00;100523.03;5101264;28;20035;-75
2023/06/29 02:53:22;;;;;;;29.70;18.45;;;;;;;19.47;100.00;100527.72;5082668;28;20149;-74
2023/06/29 02:55:47;;;;;;;29.55;18.67;;;;;;;19.49;100.00;100533.84;5034101;28;20023;-75
2023/06/29 02:58:13;;;;;;;29.42;19.65;;;;;;;19.46;100.00;100531.72;5082818;28;20082;-75
2023/06/29 03:00:38;;;;;;;30.08;18.52;;;;;;;19.44;100.00;100532.06;5082898;28;20396;-75
2023/06/29 03:03:04;;;;;;;27.70;18.60;;;;;;;19.44;100.00;100526.44;5104915;28;20368;-75
2023/06/29 03:05:29;;;;;;;27.73;18.30;;;;;;;19.45;100.00;100530.09;5085232;28;20031;-75
2023/06/29 03:07:55;;;;;;;27.70;17.92;;;;;;;19.42;100.00;100521.16;5082819;28;20032;-75
2023/06/29 03:10:20;;;;;;;28.58;18.85;;;;;;;19.39;100.00;100519.06;5100847;28;20028;-75
2023/06/29 03:12:46;;;;;;;28.48;19.73;;;;;;;19.39;100.00;100516.25;5106914;28;20023;-75
2023/06/29 03:15:11;;;;;;;27.75;18.23;;;;;;;19.38;100.00;100511.78;5101614;28;20028;-75
2023/06/29 03:17:37;;;;;;;28.58;18.40;;;;;;;19.35;100.00;100506.84;5066121;28;20051;-75
2023/06/29 03:20:03;;;;;;;25.63;17.85;;;;;;;19.36;100.00;100510.47;5084496;28;20028;-75
2023/06/29 03:22:29;;;;;;;29.40;19.50;;;;;;;19.35;100.00;100503.22;5094655;28;20020;-75
2023/06/29 03:24:54;;;;;;;27.05;18.25;;;;;;;19.32;100.00;100493.47;5082649;28;20024;-74
2023/06/29 03:27:19;;;;;;;27.15;18.48;;;;;;;19.27;100.00;100496.53;5070541;28;20032;-75
2023/06/29 03:29:48;;;;;;;28.83;19.08;;;;;;;19.27;100.00;100502.16;5114252;28;20028;-75
2023/06/29 03:32:14;;;;;;;27.42;17.83;;;;;;;19.24;100.00;100500.06;5071299;28;20028;-75
2023/06/29 03:34:40;;;;;;;27.73;18.23;;;;;;;19.27;100.00;100498.53;5096078;28;20047;-75
2023/06/29 03:37:05;;;;;;;27.30;17.80;;;;;;;19.24;100.00;100507.69;5100085;28;20031;-74
2023/06/29 03:39:30;;;;;;;27.63;18.27;;;;;;;19.21;100.00;100509.22;5065323;28;20024;-75
2023/06/29 03:41:56;;;;;;;27.65;17.45;;;;;;;19.18;100.00;100509.91;5073347;28;20047;-75
2023/06/29 03:44:21;;;;;;;28.10;18.42;;;;;;;19.17;100.00;100513.91;5100610;28;20028;-75
2023/06/29 03:46:47;;;;;;;26.48;17.63;;;;;;;19.13;100.00;100507.34;5100083;28;20029;-75
2023/06/29 03:49:13;;;;;;;29.63;18.15;;;;;;;19.09;100.00;100509.22;5081931;28;20127;-74
2023/06/29 03:51:38;;;;;;;25.40;17.23;;;;;;;19.03;100.00;100505.81;5081864;28;20381;-74
2023/06/29 03:54:04;;;;;;;26.42;17.10;;;;;;;19.00;100.00;100509.34;5065293;28;20035;-74
2023/06/29 03:56:31;;;;;;;27.52;17.92;;;;;;;19.00;100.00;100514.97;5105495;28;20031;-75
2023/06/29 03:58:56;;;;;;;27.23;17.80;;;;;;;18.96;100.00;100514.00;5088378;28;20031;-75
2023/06/29 04:01:22;;;;;;;26.02;16.83;;;;;;;18.96;100.00;100511.19;5100014;28;20055;-74
2023/06/29 04:03:47;;;;;;;25.08;16.95;;;;;;;18.93;100.00;100509.91;5091591;28;20027;-75
2023/06/29 04:06:13;;;;;;;27.38;17.27;;;;;;;18.89;100.00;100506.16;5084023;28;20028;-75
2023/06/29 04:08:38;;;;;;;25.35;17.30;;;;;;;18.88;100.00;100507.31;5081702;28;20472;-75
2023/06/29 04:11:04;;;;;;;29.25;17.88;;;;;;;18.88;100.00;100514.94;5081743;28;20035;-74
2023/06/29 04:13:29;;;;;;;23.92;16.15;;;;;;;18.87;100.00;100513.31;5093613;28;20088;-75
2023/06/29 04:15:55;;;;;;;25.73;17.27;;;;;;;18.85;100.00;100512.84;5113396;28;20495;-75
2023/06/29 04:18:20;;;;;;;25.42;16.52;;;;;;;18.83;100.00;100513.16;5099530;28;20081;-75
2023/06/29 04:20:46;;;;;;;27.02;17.85;;;;;;;18.81;100.00;100511.91;5069238;28;20086;-75
2023/06/29 04:23:14;;;;;;;25.75;16.92;;;;;;;18.79;100.00;100515.06;5094623;28;20054;-74
2023/06/29 04:25:42;;;;;;;25.08;16.98;;;;;;;18.78;100.00;100518.22;5081839;28;20394;-75
2023/06/29 04:28:08;;;;;;;26.13;16.67;;;;;;;18.77;100.00;100514.56;5081412;28;20032;-75
2023/06/29 04:30:36;;;;;;;25.10;17.13;;;;;;;18.72;100.00;100515.63;5099469;28;20028;-75
2023/06/29 04:33:09;;;;;;;25.33;16.95;;;;;;;18.73;100.00;100528.50;5099345;28;20039;-74
2023/06/29 04:35:39;;;;;;;25.95;17.35;;;;;;;18.73;100.00;100527.69;5099276;28;20074;-74
2023/06/29 04:38:11;;;;;;;25.27;17.15;;;;;;;18.71;100.00;100525.19;5080952;28;20146;-75
2023/06/29 04:40:37;;;;;;;25.17;17.17;;;;;;;18.70;100.00;100528.38;5110037;28;20035;-75
2023/06/29 04:43:02;;;;;;;27.23;16.63;;;;;;;18.72;100.00;100537.28;5095338;28;20024;-75
2023/06/29 04:45:31;;;;;;;27.38;17.42;;;;;;;18.70;100.00;100539.63;5080920;28;20480;-74
2023/06/29 04:47:57;;;;;;;24.42;17.08;;;;;;;18.69;100.00;100533.19;5094694;28;20098;-75
2023/06/29 04:50:25;;;;;;;25.08;17.10;;;;;;;18.68;100.00;100537.16;5081020;28;20036;-75
2023/06/29 04:52:52;;;;;;;25.23;16.75;;;;;;;18.69;100.00;100533.19;5080988;28;20482;-75
2023/06/29 04:55:18;;;;;;;26.60;17.33;;;;;;;18.69;100.00;100532.34;5075558;28;20027;-74
2023/06/29 04:57:43;;;;;;;26.98;17.23;;;;;;;18.71;100.00;100536.47;5102155;28;20039;-75
2023/06/29 05:00:11;;;;;;;24.00;16.45;;;;;;;18.70;100.00;100536.81;5080786;28;20055;-74
2023/06/29 05:02:37;;;;;;;23.85;16.88;;;;;;;18.70;100.00;100542.44;5098662;28;20032;-74
2023/06/29 05:05:02;;;;;;;22.50;15.20;;;;;;;18.72;100.00;100540.09;5076358;28;20110;-75
2023/06/29 05:07:28;;;;;;;26.30;16.73;;;;;;;18.73;100.00;100538.94;5080046;28;20081;-74
2023/06/29 05:09:53;;;;;;;24.50;16.45;;;;;;;18.73;100.00;100544.56;5080804;28;20093;-75
2023/06/29 05:12:19;;;;;;;23.45;16.33;;;;;;;18.75;100.00;100545.06;5100692;28;20032;-75
2023/06/29 05:14:44;;;;;;;26.77;17.30;;;;;;;18.76;100.00;100541.09;5080202;28;20036;-74
2023/06/29 05:17:10;;;;;;;24.05;16.90;;;;;;;18.75;100.00;100542.25;5112038;28;20024;-75
2023/06/29 05:19:36;;;;;;;25.05;16.60;;;;;;;18.79;100.00;100545.19;5098988;28;20028;-74
2023/06/29 05:22:02;;;;;;;24.40;16.65;;;;;;;18.79;100.00;100548.81;5116266;28;20476;-74
2023/06/29 05:24:29;;;;;;;24.40;16.50;;;;;;;18.83;100.00;100544.13;5128882;27;20061;-74
2023/06/29 05:26:55;;;;;;;25.75;17.30;;;;;;;18.83;100.00;100544.13;5083981;28;20084;-75
2023/06/29 05:29:20;;;;;;;26.45;17.30;;;;;;;18.85;100.00;100547.41;5098218;28;20028;-74
2023/06/29 05:31:46;;;;;;;25.00;16.77;;;;;;;18.88;100.00;100540.28;5098210;28;20040;-74
2023/06/29 05:34:12;;;;;;;26.38;16.83;;;;;;;18.91;100.00;100542.38;5098657;28;20372;-75
2023/06/29 05:36:37;;;;;;;24.27;16.50;;;;;;;18.93;100.00;100543.69;5079727;28;20028;-75
2023/06/29 05:39:04;;;;;;;25.30;17.15;;;;;;;18.96;100.00;100542.97;5098175;28;20039;-74
2023/06/29 05:41:29;;;;;;;25.05;17.00;;;;;;;18.99;100.00;100547.09;5080154;28;20369;-75
2023/06/29 05:43:55;;;;;;;24.83;16.42;;;;;;;19.05;100.00;100542.88;5117339;28;20054;-74
2023/06/29 05:46:21;;;;;;;26.58;16.67;;;;;;;19.08;100.00;100544.16;5081409;28;20032;-74
2023/06/29 05:48:46;;;;;;;23.40;16.58;;;;;;;19.13;100.00;100541.13;5079998;28;20044;-75
2023/06/29 05:51:12;;;;;;;23.33;16.02;;;;;;;19.19;100.00;100546.19;5097528;28;20373;-75
2023/06/29 05:53:37;;;;;;;23.67;16.20;;;;;;;19.22;100.00;100544.63;5080148;28;20031;-74
2023/06/29 05:56:03;;;;;;;24.48;15.77;;;;;;;19.29;100.00;100544.06;5100529;28;20035;-74
2023/06/29 05:58:29;;;;;;;24.92;15.70;;;;;;;19.37;100.00;100551.56;5108431;28;20369;-74
2023/06/29 06:00:55;;;;;;;22.20;15.50;;;;;;;19.43;100.00;100550.16;5097671;28;20142;-75
2023/06/29 06:03:22;;;;;;;22.40;14.93;;;;;;;19.52;100.00;100552.84;5104051;28;20472;-74
2023/06/29 06:05:47;;;;;;;21.48;14.60;;;;;;;19.60;100.00;100554.72;5085998;28;20078;-75
2023/06/29 06:08:13;;;;;;;21.63;14.65;;;;;;;19.68;100.00;100556.59;5079362;28;20035;-74
2023/06/29 06:10:39;;;;;;;24.02;15.25;;;;;;;19.77;100.00;100565.75;5082579;28;20027;-74
2023/06/29 06:13:05;;;;;;;21.13;14.07;;;;;;;19.88;100.00;100563.25;5082865;28;20032;-74
2023/06/29 06:15:30;;;;;;;19.48;13.98;;;;;;;19.93;100.00;100551.75;5096359;28;20020;-74
2023/06/29 06:17:56;;;;;;;21.08;14.80;;;;;;;20.03;100.00;100556.03;5080255;28;20032;-74
2023/06/29 06:20:21;;;;;;;21.50;14.13;;;;;;;20.12;100.00;100558.75;5107915;28;20031;-74
2023/06/29 06:22:47;;;;;;;19.63;13.93;;;;;;;20.20;100.00;100557.78;5096371;28;20035;-74
2023/06/29 06:25:15;;;;;;;20.20;14.68;;;;;;;20.28;100.00;100566.09;5104263;28;20050;-74
2023/06/29 06:27:41;;;;;;;18.77;13.57;;;;;;;20.36;100.00;100569.91;5070163;28;20059;-74
2023/06/29 06:30:07;;;;;;;23.27;15.18;;;;;;;20.44;100.00;100565.28;5104157;28;20028;-74
2023/06/29 06:32:33;;;;;;;18.30;13.13;;;;;;;20.49;100.00;100570.69;5069570;28;20032;-75
2023/06/29 06:34:58;;;;;;;22.05;15.43;;;;;;;20.53;100.00;100569.66;5104459;28;20036;-75
2023/06/29 06:37:24;;;;;;;19.83;14.02;;;;;;;20.60;100.00;100565.38;5085710;28;20036;-75
2023/06/29 06:39:49;;;;;;;21.77;13.38;;;;;;;20.61;100.00;100575.47;5103986;28;20061;-75
2023/06/29 06:42:15;;;;;;;20.17;12.43;;;;;;;20.63;100.00;100578.75;5109154;28;20035;-74
2023/06/29 06:44:51;;;;;;;17.00;10.55;;;;;;;20.64;100.00;100571.91;5102468;28;20503;-75
2023/06/29 06:47:16;;;;;;;14.48;9.07;;;;;;;20.60;100.00;100580.28;5085918;28;20020;-75
2023/06/29 06:49:42;;;;;;;11.68;7.15;;;;;;;20.50;100.00;100578.81;5082575;28;20051;-75
2023/06/29 06:52:07;;;;;;;10.52;5.47;;;;;;;20.48;100.00;100594.44;5115932;28;20039;-75
2023/06/29 06:54:33;;;;;;;6.28;3.78;;;;;;;20.38;100.00;100595.75;5087316;28;20062;-75
2023/06/29 06:56:58;;;;;;;4.50;2.78;;;;;;;20.33;100.00;100595.19;5114853;28;20027;-75
2023/06/29 06:59:24;;;;;;;3.13;2.03;;;;;;;20.22;100.00;100598.50;5106539;28;20035;-75
2023/06/29 07:01:49;;;;;;;3.53;1.90;;;;;;;20.20;100.00;100594.44;5085909;28;20028;-75
2023/06/29 07:04:15;;;;;;;3.90;1.90;;;;;;;20.15;100.00;100603.94;5116578;28;20024;-75
2023/06/29 07:06:40;;;;;;;3.90;1.70;;;;;;;20.06;100.00;100594.81;5103673;28;20030;-75
2023/06/29 07:09:07;;;;;;;3.55;1.60;;;;;;;20.08;100.00;100600.91;5085815;28;20024;-75
2023/06/29 07:11:34;;;;;;;5.75;1.75;;;;;;;20.05;100.00;100605.25;5108996;27;20156;-74
2023/06/29 07:13:59;;;;;;;4.80;1.48;;;;;;;19.99;100.00;100603.03;5104276;28;20027;-74
2023/06/29 07:16:25;;;;;;;2.97;1.50;;;;;;;19.99;100.00;100603.88;5095290;28;20559;-75
2023/06/29 07:19:02;;;;;;;3.47;1.50;;;;;;;19.97;100.00;100608.22;5085666;28;20027;-75
2023/06/29 07:21:28;;;;;;;5.68;1.45;;;;;;;19.96;100.00;100609.41;5069806;28;20043;-74
2023/06/29 07:23:54;;;;;;;3.88;1.23;;;;;;;19.88;100.00;100599.06;5117335;28;20032;-74
2023/06/29 07:26:19;;;;;;;3.08;1.10;;;;;;;19.92;100.00;100602.81;5103677;28;20028;-75
2023/06/29 07:28:45;;;;;;;4.15;1.30;;;;;;;19.92;100.00;100605.63;5103598;28;20031;-74
2023/06/29 07:31:10;;;;;;;3.03;1.20;;;;;;;19.90;100.00;100608.81;5100946;28;20046;-74
2023/06/29 07:33:36;;;;;;;4.18;1.52;;;;;;;19.92;100.00;100600.84;5100497;28;20028;-75
2023/06/29 07:36:01;;;;;;;2.92;1.27;;;;;;;19.94;100.00;100612.56;5082152;28;20035;-74
2023/06/29 07:38:27;;;;;;;7.47;1.30;;;;;;;19.96;100.00;100609.41;5082352;28;20111;-74
2023/06/29 07:40:52;;;;;;;3.45;1.20;;;;;;;19.93;100.00;100605.28;5100501;28;20039;-74
2023/06/29 07:43:18;;;;;;;2.78;1.30;;;;;;;19.94;100.00;100608.91;5079071;28;20069;-75
2023/06/29 07:45:43;;;;;;;3.30;1.50;;;;;;;19.89;100.00;100611.97;5072358;28;20035;-74
2023/06/29 07:48:09;;;;;;;3.88;1.30;;;;;;;19.94;100.00;100617.38;5100122;28;20051;-74
2023/06/29 07:50:34;;;;;;;3.08;1.08;;;;;;;19.84;100.00;100619.53;5081988;28;20028;-74
2023/06/29 07:53:00;;;;;;;2.60;1.20;;;;;;;19.89;100.00;100618.44;5098269;28;20439;-75
2023/06/29 07:55:25;;;;;;;4.03;1.45;;;;;;;19.91;100.00;100624.53;5083682;28;20524;-74
2023/06/29 07:57:51;;;;;;;4.28;1.23;;;;;;;19.86;100.00;100624.78;5113442;28;20548;-74
2023/06/29 08:00:17;;;;;;;3.25;1.20;;;;;;;19.87;100.00;100620.81;5093201;28;20080;-74
2023/06/29 08:02:43;;;;;;;3.88;1.20;;;;;;;19.91;100.00;100633.00;5102871;28;20040;-75
2023/06/29 08:05:09;;;;;;;3.10;1.40;;;;;;;19.86;100.00;100639.72;5093452;28;20035;-74
2023/06/29 08:07:35;;;;;;;2.83;1.15;;;;;;;19.85;100.00;100632.41;5099469;28;20137;-74
2023/06/29 08:10:00;;;;;;;5.00;1.60;;;;;;;19.89;100.00;100635.34;5099862;28;20024;-74
2023/06/29 08:12:26;;;;;;;3.03;1.33;;;;;;;19.88;100.00;100633.72;5084463;28;20036;-75
2023/06/29 08:14:52;;;;;;;5.00;1.40;;;;;;;19.88;100.00;100635.72;5120330;28;20039;-74
2023/06/29 08:17:17;;;;;;;4.82;1.77;;;;;;;19.89;100.00;100632.53;5086003;28;20157;-74
2023/06/29 08:19:43;;;;;;;3.53;0.90;;;;;;;19.94;100.00;100634.28;5090939;28;20036;-74
2023/06/29 08:22:08;;;;;;;5.30;1.77;;;;;;;19.94;100.00;100632.28;5077707;28;20032;-74
2023/06/29 08:24:34;;;;;;;3.35;1.23;;;;;;;19.95;100.00;100628.31;5081418;28;20039;-74
2023/06/29 08:26:59;;;;;;;5.40;1.45;;;;;;;19.98;100.00;100627.59;5081172;28;20028;-74
2023/06/29 08:29:25;;;;;;;3.95;1.38;;;;;;;20.00;100.00;100628.06;5081262;28;20043;-74
2023/06/29 08:31:51;;;;;;;2.65;1.20;;;;;;;20.03;100.00;100632.16;5107057;28;20081;-74
2023/06/29 08:34:17;;;;;;;5.10;1.35;;;;;;;20.05;100.00;100635.44;5115516;28;20433;-75
2023/06/29 08:36:43;;;;;;;3.90;1.25;;;;;;;20.01;100.00;100635.34;5099796;28;20043;-74
2023/06/29 08:39:09;;;;;;;4.95;1.40;;;;;;;20.00;100.00;100630.91;5064310;28;20081;-74
2023/06/29 08:41:35;;;;;;;5.00;1.00;;;;;;;19.93;100.00;100635.47;5112111;28;20024;-74
2023/06/29 08:44:02;;;;;;;5.95;1.13;;;;;;;19.94;100.00;100637.94;5100619;28;20036;-74
2023/06/29 08:46:27;;;;;;;2.03;0.80;;;;;;;19.92;100.00;100639.44;5099936;28;20511;-74
2023/06/29 08:48:53;;;;;;;3.92;1.17;;;;;;;19.92;100.00;100642.28;5080459;28;20060;-74
2023/06/29 08:51:19;;;;;;;2.47;0.93;;;;;;;19.88;100.00;100638.53;5082565;28;20107;-74
2023/06/29 08:53:45;;;;;;;2.45;0.70;;;;;;;19.84;100.00;100644.06;5106813;28;20088;-74
2023/06/29 08:56:11;;;;;;;1.73;0.80;;;;;;;19.88;100.00;100647.00;5049967;28;20020;-75
2023/06/29 08:58:37;;;;;;;2.45;0.80;;;;;;;19.88;100.00;100638.53;5075077;28;20028;-74
2023/06/29 09:01:03;;;;;;;3.90;0.90;;;;;;;19.89;100.00;100640.16;5082719;28;20032;-74
2023/06/29 09:03:28;;;;;;;4.03;1.00;;;;;;;19.80;100.00;100641.13;5087579;28;20072;-75
2023/06/29 09:05:57;;;;;;;2.05;0.82;;;;;;;19.84;100.00;100641.25;5103519;28;20421;-75
2023/06/29 09:08:23;;;;;;;2.03;1.20;;;;;;;19.84;100.00;100630.78;5080403;28;20038;-74
2023/06/29 09:10:49;;;;;;;4.57;1.20;;;;;;;19.84;100.00;100632.78;5063794;28;20036;-75
2023/06/29 09:13:14;;;;;;;1.20;0.85;;;;;;;19.84;100.00;100638.44;5074991;28;20038;-74
2023/06/29 09:15:40;;;;;;;2.45;0.80;;;;;;;19.86;100.00;100630.41;5113948;28;20020;-75
2023/06/29 09:18:07;;;;;;;2.90;0.88;;;;;;;19.90;100.00;100630.56;5080478;28;20035;-74
2023/06/29 09:20:35;;;;;;;1.58;0.90;;;;;;;19.91;100.00;100632.19;5064228;28;20031;-74
2023/06/29 09:23:05;;;;;;;2.90;0.73;;;;;;;19.93;100.00;100641.13;5092385;28;20085;-74
2023/06/29 09:25:32;;;;;;;1.63;0.80;;;;;;;19.99;100.00;100642.50;5081147;28;20081;-74
2023/06/29 09:28:04;;;;;;;3.45;0.90;;;;;;;19.99;100.00;100639.69;5076536;28;20464;-75
2023/06/29 09:30:37;;;;;;;3.03;1.00;;;;;;;19.95;100.00;100644.41;5087824;28;20080;-74
2023/06/29 09:33:12;;;;;;;;;;;;;;;20.02;100.00;100645.44;5085510;28;20032;-74
2023/06/29 09:35:41;;;;;;;1.75;0.70;;;;;;;20.02;100.00;100636.16;5097930;28;20002;-74
2023/06/29 09:38:06;;;;;;;2.53;1.15;;;;;;;20.08;100.00;100643.19;5079336;28;20024;-75
2023/06/29 09:40:35;;;;;;;3.33;0.93;;;;;;;20.11;100.00;100641.66;5080178;28;20039;-74
2023/06/29 09:43:05;;;;;;;1.98;0.90;;;;;;;20.16;100.00;100647.06;5074664;28;20023;-75
2023/06/29 09:45:30;;;;;;;3.13;0.98;;;;;;;20.18;100.00;100651.16;5106684;28;20063;-74
2023/06/29 09:47:56;;;;;;;1.27;0.70;;;;;;;20.25;100.00;100648.56;5079347;28;20048;-74
2023/06/29 09:50:22;;;;;;;2.88;1.20;;;;;;;20.24;100.00;100646.91;5079650;28;20025;-74
2023/06/29 09:52:49;;;;;;;1.88;0.75;;;;;;;20.28;100.00;100641.38;5078800;28;20024;-74
2023/06/29 09:55:15;;;;;;;2.10;1.00;;;;;;;20.30;100.00;100647.50;5074728;28;20066;-74
2023/06/29 09:57:45;;;;;;;1.50;0.90;;;;;;;20.33;100.00;100648.78;5101157;28;20065;-74
2023/06/29 10:00:12;;;;;;;3.30;1.00;;;;;;;20.32;100.00;100647.97;5097813;28;20024;-74
2023/06/29 10:02:39;;;;;;;3.05;1.20;;;;;;;20.35;100.00;100652.88;5097817;28;20028;-75
2023/06/29 10:05:05;;;;;;;4.43;1.00;;;;;;;20.33;100.00;100655.22;5087722;28;20024;-74
2023/06/29 10:07:31;;;;;;;3.45;1.08;;;;;;;20.31;100.00;100654.78;5094185;28;20032;-75
2023/06/29 10:09:57;;;;;;;1.90;1.00;;;;;;;20.29;100.00;100652.31;5099715;28;20031;-74
2023/06/29 10:12:22;;;;;;;2.20;0.90;;;;;;;20.29;100.00;100648.69;5099322;28;20293;-74
2023/06/29 10:14:48;;;;;;;1.98;1.00;;;;;;;20.28;100.00;100653.50;5099764;28;20034;-74
2023/06/29 10:17:16;;;;;;;3.10;1.17;;;;;;;20.31;100.00;100649.97;5099710;28;20437;-74
2023/06/29 10:19:42;;;;;;;3.22;1.25;;;;;;;20.30;100.00;100653.94;5098827;28;20391;-75
2023/06/29 10:22:14;;;;;;;3.88;1.13;;;;;;;20.29;100.00;100657.97;5107296;28;20032;-74
2023/06/29 10:24:44;;;;;;;;;;;;;;;20.35;100.00;100657.72;5099575;28;20034;-74
2023/06/29 10:27:09;;;;;;;5.10;1.27;;;;;;;20.30;100.00;100648.31;5088497;28;20329;-74
2023/06/29 10:29:44;;;;;;;2.05;0.90;;;;;;;20.39;100.00;100648.16;5117757;28;20092;-74
2023/06/29 10:32:27;;;;;;;2.72;1.23;;;;;;;20.43;100.00;100646.28;5097024;28;20032;-74
2023/06/29 10:35:02;;;;;;;3.03;1.05;;;;;;;20.54;100.00;100649.44;5104828;28;20040;-75
2023/06/29 10:37:32;;;;;;;4.57;1.00;;;;;;;20.65;100.00;100647.75;5126511;28;20467;-74
2023/06/29 10:39:58;;;;;;;3.22;1.20;;;;;;;20.74;100.00;100654.06;5115879;28;20073;-74
2023/06/29 10:42:23;;;;;;;4.18;1.48;;;;;;;20.86;100.00;100655.19;5098674;28;20039;-73
2023/06/29 10:44:49;;;;;;;1.92;0.90;;;;;;;20.95;100.00;100658.69;5112336;28;20089;-74
2023/06/29 10:47:27;;;;;;;2.50;1.20;;;;;;;21.07;100.00;100655.78;5079012;28;20071;-75
2023/06/29 10:50:08;;;;;;;2.78;1.00;;;;;;;21.16;100.00;100650.78;5099827;28;20120;-74
2023/06/29 10:52:34;;;;;;;2.17;0.95;;;;;;;21.29;100.00;100647.88;5078809;28;20032;-74
2023/06/29 10:55:19;;;;;;;3.60;0.90;;;;;;;21.45;100.00;100651.53;5097245;28;20027;-75
2023/06/29 10:57:55;;;;;;;3.13;0.80;;;;;;;21.59;100.00;100649.09;5110515;28;20036;-75
2023/06/29 11:00:22;;;;;;;3.40;1.00;;;;;;;21.73;100.00;100644.97;5079219;28;20036;-74
2023/06/29 11:02:48;;;;;;;4.32;0.90;;;;;;;21.88;100.00;100646.97;5063876;28;20032;-75